sensor_id;sensor_type;location;lat;lon;timestamp;pressure;altitude;pressure_sealevel;temperature;humidity
42705;BME280;28342;42.594;23.414;2023-04-19T00:00:01;94075.63;;;10.34;87.10
42705;BME280;28342;42.594;23.414;2023-04-19T00:02:28;94074.84;;;10.33;87.11
42705;BME280;28342;42.594;23.414;2023-04-19T00:04:54;94075.16;;;10.23;87.54
42705;BME280;28342;42.594;23.414;2023-04-19T00:07:19;94072.38;;;10.11;88.14
42705;BME280;28342;42.594;23.414;2023-04-19T00:09:45;94070.00;;;10.18;88.08
42705;BME280;28342;42.594;23.414;2023-04-19T00:12:10;94081.72;;;10.17;87.99
42705;BME280;28342;42.594;23.414;2023-04-19T00:14:36;94072.84;;;10.22;87.86
42705;BME280;28342;42.594;23.414;2023-04-19T00:17:01;94071.88;;;10.17;89.50
42705;BME280;28342;42.594;23.414;2023-04-19T00:19:26;94062.84;;;10.18;89.38
42705;BME280;28342;42.594;23.414;2023-04-19T00:21:52;94058.50;;;10.23;88.59
42705;BME280;28342;42.594;23.414;2023-04-19T00:24:17;94050.06;;;10.21;87.81
42705;BME280;28342;42.594;23.414;2023-04-19T00:26:43;94053.97;;;10.23;87.60
42705;BME280;28342;42.594;23.414;2023-04-19T00:29:08;94051.94;;;10.29;86.99
42705;BME280;28342;42.594;23.414;2023-04-19T00:31:35;94038.53;;;10.25;86.99
42705;BME280;28342;42.594;23.414;2023-04-19T00:34:00;94036.34;;;10.10;87.41
42705;BME280;28342;42.594;23.414;2023-04-19T00:36:26;94041.03;;;10.04;88.14
42705;BME280;28342;42.594;23.414;2023-04-19T00:38:51;94040.41;;;10.16;87.48
42705;BME280;28342;42.594;23.414;2023-04-19T00:41:17;94046.16;;;10.18;87.58
42705;BME280;28342;42.594;23.414;2023-04-19T00:43:42;94049.91;;;10.17;87.52
42705;BME280;28342;42.594;23.414;2023-04-19T00:46:08;94030.91;;;10.15;87.33
42705;BME280;28342;42.594;23.414;2023-04-19T00:48:33;94045.88;;;10.28;87.65
42705;BME280;28342;42.594;23.414;2023-04-19T00:51:02;94037.47;;;10.26;87.33
42705;BME280;28342;42.594;23.414;2023-04-19T00:53:29;94033.72;;;10.27;87.19
42705;BME280;28342;42.594;23.414;2023-04-19T00:55:56;94049.25;;;10.37;87.74
42705;BME280;28342;42.594;23.414;2023-04-19T00:58:24;94045.50;;;10.38;87.83
42705;BME280;28342;42.594;23.414;2023-04-19T01:00:52;94041.66;;;10.27;87.90
42705;BME280;28342;42.594;23.414;2023-04-19T01:03:17;94031.22;;;10.22;88.89
42705;BME280;28342;42.594;23.414;2023-04-19T01:05:44;94040.09;;;10.26;88.80
42705;BME280;28342;42.594;23.414;2023-04-19T01:08:09;94035.09;;;10.33;88.37
42705;BME280;28342;42.594;23.414;2023-04-19T01:10:35;94038.69;;;10.29;88.34
42705;BME280;28342;42.594;23.414;2023-04-19T01:13:00;94014.22;;;10.14;88.26
42705;BME280;28342;42.594;23.414;2023-04-19T01:15:26;94032.44;;;10.33;87.86
42705;BME280;28342;42.594;23.414;2023-04-19T01:17:51;94023.09;;;10.27;87.67
42705;BME280;28342;42.594;23.414;2023-04-19T01:20:17;94036.00;;;10.37;87.21
42705;BME280;28342;42.594;23.414;2023-04-19T01:22:42;94012.34;;;10.24;86.85
42705;BME280;28342;42.594;23.414;2023-04-19T01:25:08;94034.13;;;10.38;86.90
42705;BME280;28342;42.594;23.414;2023-04-19T01:27:34;94041.44;;;10.41;87.08
42705;BME280;28342;42.594;23.414;2023-04-19T01:29:59;94025.56;;;10.32;88.03
42705;BME280;28342;42.594;23.414;2023-04-19T01:32:25;94022.47;;;10.30;87.97
42705;BME280;28342;42.594;23.414;2023-04-19T01:34:51;94015.44;;;10.34;87.65
42705;BME280;28342;42.594;23.414;2023-04-19T01:37:17;94023.88;;;10.28;88.71
42705;BME280;28342;42.594;23.414;2023-04-19T01:39:42;94024.66;;;10.28;88.36
42705;BME280;28342;42.594;23.414;2023-04-19T01:42:08;94009.06;;;10.18;88.45
42705;BME280;28342;42.594;23.414;2023-04-19T01:44:33;94026.63;;;10.40;88.06
42705;BME280;28342;42.594;23.414;2023-04-19T01:46:58;94033.47;;;10.50;87.63
42705;BME280;28342;42.594;23.414;2023-04-19T01:49:24;94018.53;;;10.45;87.44
42705;BME280;28342;42.594;23.414;2023-04-19T01:51:50;94019.50;;;10.32;87.91
42705;BME280;28342;42.594;23.414;2023-04-19T01:54:15;94020.56;;;10.39;87.70
42705;BME280;28342;42.594;23.414;2023-04-19T01:56:40;94017.91;;;10.39;87.81
42705;BME280;28342;42.594;23.414;2023-04-19T01:59:06;94023.81;;;10.45;87.75
42705;BME280;28342;42.594;23.414;2023-04-19T02:01:31;94005.66;;;10.26;87.54
42705;BME280;28342;42.594;23.414;2023-04-19T02:03:57;94017.75;;;10.36;87.87
42705;BME280;28342;42.594;23.414;2023-04-19T02:06:22;94021.66;;;10.38;87.80
42705;BME280;28342;42.594;23.414;2023-04-19T02:08:48;94004.06;;;10.25;87.81
42705;BME280;28342;42.594;23.414;2023-04-19T02:11:13;94012.16;;;10.37;87.95
42705;BME280;28342;42.594;23.414;2023-04-19T02:13:39;94018.38;;;10.41;87.78
42705;BME280;28342;42.594;23.414;2023-04-19T02:16:05;94012.91;;;10.46;87.30
42705;BME280;28342;42.594;23.414;2023-04-19T02:18:31;94012.44;;;10.44;87.43
42705;BME280;28342;42.594;23.414;2023-04-19T02:21:00;94012.28;;;10.41;87.21
42705;BME280;28342;42.594;23.414;2023-04-19T02:23:25;94005.59;;;10.43;87.19
42705;BME280;28342;42.594;23.414;2023-04-19T02:25:51;94002.31;;;10.38;87.38
42705;BME280;28342;42.594;23.414;2023-04-19T02:28:16;93994.41;;;10.29;87.87
42705;BME280;28342;42.594;23.414;2023-04-19T02:30:42;94027.13;;;10.33;88.40
42705;BME280;28342;42.594;23.414;2023-04-19T02:33:07;94022.28;;;10.35;87.97
42705;BME280;28342;42.594;23.414;2023-04-19T02:35:33;93995.53;;;10.02;86.98
42705;BME280;28342;42.594;23.414;2023-04-19T02:38:02;94016.88;;;10.23;86.72
42705;BME280;28342;42.594;23.414;2023-04-19T02:40:28;94019.97;;;10.25;87.51
42705;BME280;28342;42.594;23.414;2023-04-19T02:42:53;94013.59;;;10.17;87.10
42705;BME280;28342;42.594;23.414;2023-04-19T02:45:19;94025.78;;;10.01;87.11
42705;BME280;28342;42.594;23.414;2023-04-19T02:47:44;94002.09;;;9.87;87.06
42705;BME280;28342;42.594;23.414;2023-04-19T02:50:11;94014.69;;;10.08;85.93
42705;BME280;28342;42.594;23.414;2023-04-19T02:52:36;94015.47;;;10.08;85.61
42705;BME280;28342;42.594;23.414;2023-04-19T02:55:02;94014.41;;;10.01;86.46
42705;BME280;28342;42.594;23.414;2023-04-19T02:57:29;94020.63;;;10.05;86.92
42705;BME280;28342;42.594;23.414;2023-04-19T02:59:54;94010.06;;;9.87;86.67
42705;BME280;28342;42.594;23.414;2023-04-19T03:02:20;93998.84;;;9.82;86.67
42705;BME280;28342;42.594;23.414;2023-04-19T03:04:45;94011.44;;;10.02;86.40
42705;BME280;28342;42.594;23.414;2023-04-19T03:07:11;93998.97;;;9.94;86.45
42705;BME280;28342;42.594;23.414;2023-04-19T03:09:37;93995.41;;;9.90;87.65
42705;BME280;28342;42.594;23.414;2023-04-19T03:12:03;94010.94;;;10.09;87.11
42705;BME280;28342;42.594;23.414;2023-04-19T03:14:29;94009.56;;;10.11;86.57
42705;BME280;28342;42.594;23.414;2023-04-19T03:16:54;94012.22;;;10.11;86.66
42705;BME280;28342;42.594;23.414;2023-04-19T03:19:19;94004.59;;;9.93;87.44
42705;BME280;28342;42.594;23.414;2023-04-19T03:21:45;93999.13;;;9.98;86.60
42705;BME280;28342;42.594;23.414;2023-04-19T03:24:11;94019.84;;;10.13;85.99
42705;BME280;28342;42.594;23.414;2023-04-19T03:26:36;94004.25;;;10.11;85.63
42705;BME280;28342;42.594;23.414;2023-04-19T03:29:02;94005.63;;;10.09;86.00
42705;BME280;28342;42.594;23.414;2023-04-19T03:31:27;94005.63;;;10.09;85.51
42705;BME280;28342;42.594;23.414;2023-04-19T03:33:53;94016.28;;;9.92;86.48
42705;BME280;28342;42.594;23.414;2023-04-19T03:36:33;94001.16;;;9.92;85.68
42705;BME280;28342;42.594;23.414;2023-04-19T03:39:17;93991.06;;;9.68;86.23
42705;BME280;28342;42.594;23.414;2023-04-19T03:41:42;94003.19;;;9.86;85.66
42705;BME280;28342;42.594;23.414;2023-04-19T03:44:07;93986.38;;;9.82;85.74
42705;BME280;28342;42.594;23.414;2023-04-19T03:46:33;94006.13;;;9.94;85.54
42705;BME280;28342;42.594;23.414;2023-04-19T03:48:58;94012.22;;;10.03;85.21
42705;BME280;28342;42.594;23.414;2023-04-19T03:51:24;93999.59;;;10.00;84.91
42705;BME280;28342;42.594;23.414;2023-04-19T03:53:49;93999.13;;;9.98;84.99
42705;BME280;28342;42.594;23.414;2023-04-19T03:56:15;93995.53;;;9.94;85.19
42705;BME280;28342;42.594;23.414;2023-04-19T03:58:40;94010.66;;;10.02;84.71
42705;BME280;28342;42.594;23.414;2023-04-19T04:01:05;94008.78;;;9.94;84.90
42705;BME280;28342;42.594;23.414;2023-04-19T04:03:32;94006.63;;;9.87;84.87
42705;BME280;28342;42.594;23.414;2023-04-19T04:05:58;94012.69;;;9.96;84.46
42705;BME280;28342;42.594;23.414;2023-04-19T04:08:23;93993.38;;;9.78;84.72
42705;BME280;28342;42.594;23.414;2023-04-19T04:10:49;94008.03;;;9.84;84.53
42705;BME280;28342;42.594;23.414;2023-04-19T04:13:14;94002.75;;;9.76;84.94
42705;BME280;28342;42.594;23.414;2023-04-19T04:15:39;94015.97;;;9.84;85.19
42705;BME280;28342;42.594;23.414;2023-04-19T04:18:05;94014.56;;;9.78;85.35
42705;BME280;28342;42.594;23.414;2023-04-19T04:20:30;94004.16;;;9.56;86.21
42705;BME280;28342;42.594;23.414;2023-04-19T04:22:56;94015.69;;;9.60;86.48
42705;BME280;28342;42.594;23.414;2023-04-19T04:25:21;94011.47;;;9.33;87.29
42705;BME280;28342;42.594;23.414;2023-04-19T04:27:49;94012.56;;;9.49;87.38
42705;BME280;28342;42.594;23.414;2023-04-19T04:30:16;94011.00;;;9.57;86.95
42705;BME280;28342;42.594;23.414;2023-04-19T04:32:41;94023.44;;;9.13;90.79
42705;BME280;28342;42.594;23.414;2023-04-19T04:35:08;94011.28;;;9.12;91.22
42705;BME280;28342;42.594;23.414;2023-04-19T04:37:34;94031.69;;;9.29;90.77
42705;BME280;28342;42.594;23.414;2023-04-19T04:40:01;94033.28;;;9.39;90.04
42705;BME280;28342;42.594;23.414;2023-04-19T04:42:27;94029.38;;;9.45;88.97
42705;BME280;28342;42.594;23.414;2023-04-19T04:44:55;94008.50;;;9.17;89.24
42705;BME280;28342;42.594;23.414;2023-04-19T04:47:22;94033.91;;;9.44;88.23
42705;BME280;28342;42.594;23.414;2023-04-19T04:49:47;94032.34;;;9.43;89.18
42705;BME280;28342;42.594;23.414;2023-04-19T04:52:13;94034.84;;;9.57;87.98
42705;BME280;28342;42.594;23.414;2023-04-19T04:54:39;94034.69;;;9.53;86.71
42705;BME280;28342;42.594;23.414;2023-04-19T04:57:04;94022.53;;;9.44;87.05
42705;BME280;28342;42.594;23.414;2023-04-19T04:59:30;94035.78;;;9.52;86.57
42705;BME280;28342;42.594;23.414;2023-04-19T05:01:55;94033.28;;;9.65;85.93
42705;BME280;28342;42.594;23.414;2023-04-19T05:04:20;93995.44;;;9.29;85.69
42705;BME280;28342;42.594;23.414;2023-04-19T05:06:46;94037.00;;;9.64;85.98
42705;BME280;28342;42.594;23.414;2023-04-19T05:09:11;94033.44;;;9.68;86.13
42705;BME280;28342;42.594;23.414;2023-04-19T05:11:37;94002.16;;;9.53;85.62
42705;BME280;28342;42.594;23.414;2023-04-19T05:14:02;94036.84;;;9.77;85.89
42705;BME280;28342;42.594;23.414;2023-04-19T05:16:28;94036.84;;;9.60;85.33
42705;BME280;28342;42.594;23.414;2023-04-19T05:18:53;94039.53;;;9.51;85.66
42705;BME280;28342;42.594;23.414;2023-04-19T05:21:20;94020.81;;;9.48;85.40
42705;BME280;28342;42.594;23.414;2023-04-19T05:23:45;94037.50;;;9.57;85.46
42705;BME280;28342;42.594;23.414;2023-04-19T05:26:10;94030.75;;;9.34;85.80
42705;BME280;28342;42.594;23.414;2023-04-19T05:28:39;94006.91;;;8.99;86.97
42705;BME280;28342;42.594;23.414;2023-04-19T05:31:05;94044.16;;;9.28;86.22
42705;BME280;28342;42.594;23.414;2023-04-19T05:33:30;94040.44;;;9.38;86.12
42705;BME280;28342;42.594;23.414;2023-04-19T05:35:55;94040.09;;;9.31;86.66
42705;BME280;28342;42.594;23.414;2023-04-19T05:38:21;94042.75;;;9.22;87.19
42705;BME280;28342;42.594;23.414;2023-04-19T05:40:46;94046.19;;;9.32;87.14
42705;BME280;28342;42.594;23.414;2023-04-19T05:43:12;94041.34;;;9.34;86.78
42705;BME280;28342;42.594;23.414;2023-04-19T05:45:37;94035.44;;;9.28;86.01
42705;BME280;28342;42.594;23.414;2023-04-19T05:48:03;94052.91;;;9.46;85.85
42705;BME280;28342;42.594;23.414;2023-04-19T05:50:28;94050.72;;;9.48;85.81
42705;BME280;28342;42.594;23.414;2023-04-19T05:52:54;94053.66;;;9.47;85.50
42705;BME280;28342;42.594;23.414;2023-04-19T05:55:19;94055.56;;;9.55;84.79
42705;BME280;28342;42.594;23.414;2023-04-19T05:57:45;94042.47;;;9.50;85.71
42705;BME280;28342;42.594;23.414;2023-04-19T06:00:11;94041.84;;;9.36;85.10
42705;BME280;28342;42.594;23.414;2023-04-19T06:02:36;94025.03;;;9.40;85.89
42705;BME280;28342;42.594;23.414;2023-04-19T06:05:02;94038.88;;;9.63;85.50
42705;BME280;28342;42.594;23.414;2023-04-19T06:07:31;94050.75;;;9.83;86.12
42705;BME280;28342;42.594;23.414;2023-04-19T06:09:56;94048.06;;;9.92;85.55
42705;BME280;28342;42.594;23.414;2023-04-19T06:12:22;94054.00;;;9.88;84.80
42705;BME280;28342;42.594;23.414;2023-04-19T06:14:47;94058.66;;;9.92;85.21
42705;BME280;28342;42.594;23.414;2023-04-19T06:17:13;94051.16;;;9.94;85.44
42705;BME280;28342;42.594;23.414;2023-04-19T06:19:41;94032.94;;;9.92;84.05
42705;BME280;28342;42.594;23.414;2023-04-19T06:22:06;94052.41;;;10.05;84.99
42705;BME280;28342;42.594;23.414;2023-04-19T06:24:32;94040.56;;;10.11;84.43
42705;BME280;28342;42.594;23.414;2023-04-19T06:26:57;94061.13;;;10.31;84.07
42705;BME280;28342;42.594;23.414;2023-04-19T06:29:23;94060.50;;;10.34;83.35
42705;BME280;28342;42.594;23.414;2023-04-19T06:31:48;94051.31;;;10.23;82.50
42705;BME280;28342;42.594;23.414;2023-04-19T06:34:14;94060.03;;;10.24;83.21
42705;BME280;28342;42.594;23.414;2023-04-19T06:36:42;94061.59;;;10.25;83.34
42705;BME280;28342;42.594;23.414;2023-04-19T06:39:08;94065.50;;;10.18;82.59
42705;BME280;28342;42.594;23.414;2023-04-19T06:41:34;94065.19;;;10.20;82.88
42705;BME280;28342;42.594;23.414;2023-04-19T06:43:59;94055.34;;;10.21;83.68
42705;BME280;28342;42.594;23.414;2023-04-19T06:46:25;94069.56;;;10.25;83.51
42705;BME280;28342;42.594;23.414;2023-04-19T06:48:51;94067.69;;;10.25;82.56
42705;BME280;28342;42.594;23.414;2023-04-19T06:51:17;94045.56;;;10.21;83.32
42705;BME280;28342;42.594;23.414;2023-04-19T06:53:42;94073.59;;;10.39;82.55
42705;BME280;28342;42.594;23.414;2023-04-19T06:56:09;94050.81;;;10.38;81.95
42705;BME280;28342;42.594;23.414;2023-04-19T06:58:34;94055.44;;;10.59;81.08
42705;BME280;28342;42.594;23.414;2023-04-19T07:01:01;94072.59;;;10.61;81.52
42705;BME280;28342;42.594;23.414;2023-04-19T07:03:27;94066.44;;;10.78;80.36
42705;BME280;28342;42.594;23.414;2023-04-19T07:05:56;94050.22;;;10.80;81.53
42705;BME280;28342;42.594;23.414;2023-04-19T07:08:22;94075.25;;;10.99;79.70
42705;BME280;28342;42.594;23.414;2023-04-19T07:10:48;94079.28;;;11.05;79.13
42705;BME280;28342;42.594;23.414;2023-04-19T07:13:13;94081.50;;;11.03;80.52
42705;BME280;28342;42.594;23.414;2023-04-19T07:15:38;94076.09;;;11.21;79.47
42705;BME280;28342;42.594;23.414;2023-04-19T07:18:04;94059.38;;;11.20;81.23
42705;BME280;28342;42.594;23.414;2023-04-19T07:20:29;94075.34;;;11.41;79.29
42705;BME280;28342;42.594;23.414;2023-04-19T07:22:57;94068.28;;;11.45;78.26
42705;BME280;28342;42.594;23.414;2023-04-19T07:25:22;94076.53;;;11.52;77.46
42705;BME280;28342;42.594;23.414;2023-04-19T07:27:48;94065.38;;;11.59;77.25
42705;BME280;28342;42.594;23.414;2023-04-19T07:30:13;94053.22;;;11.79;76.15
42705;BME280;28342;42.594;23.414;2023-04-19T07:32:39;94073.00;;;11.90;75.63
42705;BME280;28342;42.594;23.414;2023-04-19T07:35:05;94081.16;;;11.85;74.23
42705;BME280;28342;42.594;23.414;2023-04-19T07:37:31;94078.38;;;12.02;77.76
42705;BME280;28342;42.594;23.414;2023-04-19T07:39:56;94066.19;;;12.01;77.23
42705;BME280;28342;42.594;23.414;2023-04-19T07:42:23;94049.53;;;12.25;74.80
42705;BME280;28342;42.594;23.414;2023-04-19T07:44:48;94077.63;;;12.47;73.99
42705;BME280;28342;42.594;23.414;2023-04-19T07:47:13;94072.81;;;12.61;74.08
42705;BME280;28342;42.594;23.414;2023-04-19T07:49:39;94072.53;;;12.54;72.11
42705;BME280;28342;42.594;23.414;2023-04-19T07:52:06;94071.03;;;12.65;71.61
42705;BME280;28342;42.594;23.414;2023-04-19T07:54:32;94072.84;;;12.73;70.60
42705;BME280;28342;42.594;23.414;2023-04-19T07:56:57;94086.69;;;12.79;71.89
42705;BME280;28342;42.594;23.414;2023-04-19T07:59:23;94086.00;;;12.70;72.47
42705;BME280;28342;42.594;23.414;2023-04-19T08:01:49;94072.16;;;13.01;72.26
42705;BME280;28342;42.594;23.414;2023-04-19T08:04:16;94077.31;;;13.30;72.13
42705;BME280;28342;42.594;23.414;2023-04-19T08:06:44;94063.78;;;13.35;69.17
42705;BME280;28342;42.594;23.414;2023-04-19T08:09:10;94090.19;;;13.40;70.54
42705;BME280;28342;42.594;23.414;2023-04-19T08:11:35;94082.19;;;13.65;68.87
42705;BME280;28342;42.594;23.414;2023-04-19T08:14:01;94073.22;;;13.97;68.94
42705;BME280;28342;42.594;23.414;2023-04-19T08:16:26;94075.53;;;14.27;67.64
42705;BME280;28342;42.594;23.414;2023-04-19T08:18:52;94070.13;;;14.39;66.15
42705;BME280;28342;42.594;23.414;2023-04-19T08:21:17;94080.19;;;14.30;67.64
42705;BME280;28342;42.594;23.414;2023-04-19T08:23:43;94063.22;;;13.94;66.86
42705;BME280;28342;42.594;23.414;2023-04-19T08:26:08;94063.97;;;14.23;66.40
42705;BME280;28342;42.594;23.414;2023-04-19T08:28:36;94086.06;;;14.35;66.02
42705;BME280;28342;42.594;23.414;2023-04-19T08:31:05;94078.03;;;14.07;65.06
42705;BME280;28342;42.594;23.414;2023-04-19T08:33:31;94066.31;;;13.96;66.72
42705;BME280;28342;42.594;23.414;2023-04-19T08:35:57;94079.41;;;14.29;65.54
42705;BME280;28342;42.594;23.414;2023-04-19T08:38:22;94071.47;;;14.17;66.59
42705;BME280;28342;42.594;23.414;2023-04-19T08:40:51;94051.88;;;14.25;66.85
42705;BME280;28342;42.594;23.414;2023-04-19T08:43:18;94060.13;;;14.48;66.95
42705;BME280;28342;42.594;23.414;2023-04-19T08:45:46;94062.81;;;14.64;65.92
42705;BME280;28342;42.594;23.414;2023-04-19T08:48:14;94072.56;;;14.72;66.12
42705;BME280;28342;42.594;23.414;2023-04-19T08:50:40;94060.03;;;14.17;67.19
42705;BME280;28342;42.594;23.414;2023-04-19T08:53:09;94063.47;;;14.45;66.38
42705;BME280;28342;42.594;23.414;2023-04-19T08:55:40;94041.69;;;14.15;67.00
42705;BME280;28342;42.594;23.414;2023-04-19T08:58:06;94056.63;;;14.32;66.15
42705;BME280;28342;42.594;23.414;2023-04-19T09:00:32;94051.28;;;14.32;66.57
42705;BME280;28342;42.594;23.414;2023-04-19T09:02:58;94064.06;;;14.54;65.20
42705;BME280;28342;42.594;23.414;2023-04-19T09:05:24;94053.97;;;14.76;65.09
42705;BME280;28342;42.594;23.414;2023-04-19T09:07:50;94070.34;;;14.90;65.33
42705;BME280;28342;42.594;23.414;2023-04-19T09:10:19;94056.03;;;14.98;65.21
42705;BME280;28342;42.594;23.414;2023-04-19T09:13:04;94059.38;;;14.79;62.89
42705;BME280;28342;42.594;23.414;2023-04-19T09:15:37;94040.06;;;14.70;66.45
42705;BME280;28342;42.594;23.414;2023-04-19T09:18:05;94053.97;;;14.76;64.83
42705;BME280;28342;42.594;23.414;2023-04-19T09:20:44;94057.75;;;14.75;62.65
42705;BME280;28342;42.594;23.414;2023-04-19T09:23:11;94057.22;;;14.85;63.98
42705;BME280;28342;42.594;23.414;2023-04-19T09:25:38;94040.88;;;15.02;62.65
42705;BME280;28342;42.594;23.414;2023-04-19T09:28:11;94055.78;;;15.03;61.24
42705;BME280;28342;42.594;23.414;2023-04-19T09:30:37;94055.34;;;15.17;62.05
42705;BME280;28342;42.594;23.414;2023-04-19T09:33:04;94061.00;;;15.47;63.61
42705;BME280;28342;42.594;23.414;2023-04-19T09:35:41;94054.53;;;15.48;61.06
42705;BME280;28342;42.594;23.414;2023-04-19T09:38:08;94063.72;;;15.66;60.86
42705;BME280;28342;42.594;23.414;2023-04-19T09:40:33;94054.72;;;15.74;61.31
42705;BME280;28342;42.594;23.414;2023-04-19T09:42:59;94055.53;;;15.59;60.79
42705;BME280;28342;42.594;23.414;2023-04-19T09:45:44;94045.16;;;15.93;60.48
42705;BME280;28342;42.594;23.414;2023-04-19T09:48:11;94036.63;;;15.68;59.86
42705;BME280;28342;42.594;23.414;2023-04-19T09:51:09;94052.28;;;15.50;61.36
42705;BME280;28342;42.594;23.414;2023-04-19T09:53:37;94050.56;;;15.77;61.30
42705;BME280;28342;42.594;23.414;2023-04-19T09:56:04;94043.97;;;15.71;59.40
42705;BME280;28342;42.594;23.414;2023-04-19T09:58:31;94039.50;;;15.43;57.96
42705;BME280;28342;42.594;23.414;2023-04-19T10:00:57;94040.44;;;15.67;60.95
42705;BME280;28342;42.594;23.414;2023-04-19T10:03:25;94039.75;;;15.89;60.75
42705;BME280;28342;42.594;23.414;2023-04-19T10:05:53;94033.63;;;16.08;61.25
42705;BME280;28342;42.594;23.414;2023-04-19T10:08:19;94021.66;;;16.02;57.71
42705;BME280;28342;42.594;23.414;2023-04-19T10:10:45;94023.63;;;15.86;56.81
42705;BME280;28342;42.594;23.414;2023-04-19T10:13:16;94019.41;;;16.04;57.89
42705;BME280;28342;42.594;23.414;2023-04-19T10:15:43;94026.31;;;16.24;56.08
42705;BME280;28342;42.594;23.414;2023-04-19T10:18:09;94010.66;;;16.26;55.78
42705;BME280;28342;42.594;23.414;2023-04-19T10:20:56;94019.78;;;16.87;61.75
42705;BME280;28342;42.594;23.414;2023-04-19T10:23:24;94010.59;;;17.37;59.82
42705;BME280;28342;42.594;23.414;2023-04-19T10:25:54;94023.16;;;17.86;53.42
42705;BME280;28342;42.594;23.414;2023-04-19T10:28:22;94016.19;;;18.11;52.49
42705;BME280;28342;42.594;23.414;2023-04-19T10:33:29;93997.22;;;17.97;50.13
42705;BME280;28342;42.594;23.414;2023-04-19T10:35:56;94001.53;;;17.75;49.11
42705;BME280;28342;42.594;23.414;2023-04-19T10:38:41;94013.53;;;17.55;48.66
42705;BME280;28342;42.594;23.414;2023-04-19T10:41:14;94000.72;;;16.92;51.53
42705;BME280;28342;42.594;23.414;2023-04-19T10:43:47;94001.63;;;16.77;51.86
42705;BME280;28342;42.594;23.414;2023-04-19T10:48:50;93994.94;;;16.44;53.48
42705;BME280;28342;42.594;23.414;2023-04-19T10:51:26;93990.16;;;16.34;53.26
42705;BME280;28342;42.594;23.414;2023-04-19T11:04:10;93983.81;;;16.42;55.03
42705;BME280;28342;42.594;23.414;2023-04-19T11:09:27;93984.69;;;16.27;54.36
42705;BME280;28342;42.594;23.414;2023-04-19T11:11:58;93984.69;;;16.27;53.83
42705;BME280;28342;42.594;23.414;2023-04-19T11:14:25;93978.16;;;16.24;55.46
42705;BME280;28342;42.594;23.414;2023-04-19T11:16:51;93979.25;;;16.23;53.10
42705;BME280;28342;42.594;23.414;2023-04-19T11:19:17;93976.44;;;16.16;53.92
42705;BME280;28342;42.594;23.414;2023-04-19T11:21:48;93972.34;;;16.22;53.33
42705;BME280;28342;42.594;23.414;2023-04-19T11:24:14;93979.97;;;16.20;54.44
42705;BME280;28342;42.594;23.414;2023-04-19T11:26:46;93964.03;;;16.27;55.25
42705;BME280;28342;42.594;23.414;2023-04-19T11:29:15;93968.44;;;16.62;52.30
42705;BME280;28342;42.594;23.414;2023-04-19T11:31:43;93977.16;;;16.78;52.64
42705;BME280;28342;42.594;23.414;2023-04-19T11:34:10;93964.94;;;16.58;51.69
42705;BME280;28342;42.594;23.414;2023-04-19T11:36:46;93978.41;;;16.61;51.46
42705;BME280;28342;42.594;23.414;2023-04-19T11:39:12;93967.47;;;16.70;52.16
42705;BME280;28342;42.594;23.414;2023-04-19T11:41:38;93964.97;;;16.81;51.39
42705;BME280;28342;42.594;23.414;2023-04-19T11:44:15;93951.75;;;16.68;50.92
42705;BME280;28342;42.594;23.414;2023-04-19T11:46:41;93964.66;;;16.63;50.54
42705;BME280;28342;42.594;23.414;2023-04-19T11:49:06;93968.88;;;16.41;50.65
42705;BME280;28342;42.594;23.414;2023-04-19T11:51:32;93939.97;;;16.08;51.97
42705;BME280;28342;42.594;23.414;2023-04-19T11:53:57;93946.31;;;16.19;51.43
42705;BME280;28342;42.594;23.414;2023-04-19T11:56:23;93955.88;;;16.85;52.64
42705;BME280;28342;42.594;23.414;2023-04-19T11:58:48;93946.50;;;17.28;50.79
42705;BME280;28342;42.594;23.414;2023-04-19T12:01:18;93928.88;;;17.57;49.10
42705;BME280;28342;42.594;23.414;2023-04-19T12:03:45;93954.34;;;18.01;47.50
42705;BME280;28342;42.594;23.414;2023-04-19T12:06:14;93959.50;;;18.20;47.36
42705;BME280;28342;42.594;23.414;2023-04-19T12:08:45;93947.88;;;18.46;46.87
42705;BME280;28342;42.594;23.414;2023-04-19T12:11:14;93942.56;;;18.53;47.03
42705;BME280;28342;42.594;23.414;2023-04-19T12:13:40;93949.53;;;18.58;44.53
42705;BME280;28342;42.594;23.414;2023-04-19T12:16:09;93957.75;;;18.35;44.70
42705;BME280;28342;42.594;23.414;2023-04-19T12:18:48;93949.81;;;18.08;44.99
42705;BME280;28342;42.594;23.414;2023-04-19T12:21:27;93955.41;;;18.30;45.05
42705;BME280;28342;42.594;23.414;2023-04-19T12:23:57;93936.41;;;18.49;44.40
42705;BME280;28342;42.594;23.414;2023-04-19T12:26:25;93943.88;;;18.26;43.30
42705;BME280;28342;42.594;23.414;2023-04-19T12:28:51;93931.34;;;18.03;42.65
42705;BME280;28342;42.594;23.414;2023-04-19T12:31:16;93936.81;;;18.10;42.80
42705;BME280;28342;42.594;23.414;2023-04-19T12:33:42;93946.06;;;18.16;42.59
42705;BME280;28342;42.594;23.414;2023-04-19T12:36:07;93959.19;;;18.25;45.79
42705;BME280;28342;42.594;23.414;2023-04-19T12:38:32;93944.00;;;18.40;48.55
42705;BME280;28342;42.594;23.414;2023-04-19T12:40:58;93938.13;;;18.27;48.98
42705;BME280;28342;42.594;23.414;2023-04-19T12:43:23;93937.56;;;18.07;49.12
42705;BME280;28342;42.594;23.414;2023-04-19T12:45:49;93949.97;;;18.23;51.95
42705;BME280;28342;42.594;23.414;2023-04-19T12:48:14;93948.69;;;18.50;52.92
42705;BME280;28342;42.594;23.414;2023-04-19T12:50:40;93947.00;;;18.35;49.79
42705;BME280;28342;42.594;23.414;2023-04-19T12:53:05;93951.31;;;18.06;48.05
42705;BME280;28342;42.594;23.414;2023-04-19T12:55:31;93947.09;;;17.15;48.37
42705;BME280;28342;42.594;23.414;2023-04-19T12:57:56;93934.47;;;17.45;52.90
42705;BME280;28342;42.594;23.414;2023-04-19T13:00:22;93928.44;;;17.52;49.58
42705;BME280;28342;42.594;23.414;2023-04-19T13:02:48;93921.69;;;17.61;50.85
42705;BME280;28342;42.594;23.414;2023-04-19T13:05:14;93943.56;;;16.84;48.55
42705;BME280;28342;42.594;23.414;2023-04-19T13:07:39;93941.88;;;16.72;52.65